Lake Pleasant, NY (12108)

1:40 PM EST on December 05, 2016 (GMT -0500)
King Of The Frosties | | Change Station

Elev 1752 ft 43.50 °N, 74.36 °W | Updated 28 seconds ago

Haze
Haze
32.0 °F
Feels Like 32 °F
N
0.0
Wind Variable Wind from NNW
Gusts 1.0 mph

Today
High -- | Low -- °F
--% Chance of Precip.
Yesterday
High -- | Low -- °F
Precip. -- in
Pressure 29.88 in
Visibility 2.0 miles
Clouds Few 800 ft
Mostly Cloudy 2900 ft
Overcast 4900 ft
Windchill 32 °F
Dew Point 30 °F
Humidity 93%
Rainfall 0.00 in
Snow Depth Not available.
7:15 AM 4:21 PM
Waxing Crescent, 33% visible
SPECI KGFL 051826Z AUTO 19007KT 2SM HZ FEW008 BKN029 OVC049 02/M01 A2988 RMK AO2 T00171011
Pressure 29.88 in
Visibility 2.0 miles
Clouds Few 800 ft
Mostly Cloudy 2900 ft
Overcast 4900 ft
Windchill 32 °F
Dew Point 30 °F
Humidity 93%
Rainfall 0.00 in
Snow Depth Not available.
7:15 AM 4:21 PM
Waxing Crescent, 33% visible
SPECI KGFL 051826Z AUTO 19007KT 2SM HZ FEW008 BKN029 OVC049 02/M01 A2988 RMK AO2 T00171011

10-Day Weather Forecast

Almanac

Astronomy

Dec. 05, 2016 Rise Set
Actual Time
Civil Twilight
Nautical Twilight
Astronomical Twilight
Moon
Length of Visible Light
Length of Day
Tomorrow will be .
, % of the Moon is Illuminated

Today's Extremes

State Highs State Lows

Community

WunderPhotos

Upload Photos

1,955,849 photos uploaded!

WunderBlog® & News

Nearby

Air Quality

  Air Quality AQ Index Pollutant
Not available.

Snow Depth

Station Depth Elevation

Earthquake Activity

City Distance Mag. Time & Date
Minimum magnitude displayed is 2.5.

Coastal Water Temperatures

Place Temperature

Stations

Nearby Weather Stations

Station Location Temp. Windchill Dew Point Humidity Wind Precip. Elev Updated Type
                   

Watches & Warnings

There are currently no watches in effect.